Flight Track Log - Related Links

Times and Time Zones

All times are in EDT time to prevent confusion due to time zone crossing. See the RPA3250 flight status page for this flight to view local times or setup timezone preferences in your user account.

Time Position Orientation Groundspeed Altitude Reporting Facility
EDT Latitude Longitude Course Direction KTS MPH feet Rate Location/Type
Sun 08:07:24 AM 35.2289 -80.9572 318° Northwest 158 182 1,400  Level Atlanta Center
Sun 08:08:01 AM 35.2583 -80.9611 354° North 170 196 2,400 1,837 Climbing Atlanta Center
Sun 08:09:02 AM 35.3053 -81.0053 322° Northwest 244 281 4,400 1,965 Climbing Atlanta Center
Sun 08:10:52 AM 35.4358 -80.9750 11° North 284 327 8,000 1,271 Climbing Atlanta Center
Sun 08:11:00 AM 35.5433 -81.3105 318° Northwest  Level Estimated
Sun 08:11:52 AM 35.5125 -80.9517 14° North 284 327 8,000  Level Atlanta Center
Sun 08:12:00 AM 35.6256 -81.4013 318° Northwest  Level Estimated
Sun 08:12:52 AM 35.5911 -80.9283 14° North 284 327 9,600  Level Atlanta Center
Sun 08:13:52 AM 35.6739 -80.9019 15° North 291 335 11,600 2,000 Climbing Atlanta Center
Sun 08:14:52 AM 35.7653 -80.8806 11° North 304 350 13,600 2,050 Climbing Atlanta Center
Sun 08:15:52 AM 35.8589 -80.8694 North 326 375 15,700 1,850 Climbing Atlanta Center
Sun 08:16:52 AM 35.9525 -80.8606 North 333 383 17,300 1,500 Climbing Atlanta Center
Sun 08:17:52 AM 36.0472 -80.8903 346° North 333 383 18,700 1,550 Climbing Atlanta Center
Sun 08:18:52 AM 36.1525 -80.9325 342° North 344 396 20,400 1,350 Climbing Atlanta Center
Sun 08:19:52 AM 36.2492 -80.9672 344° North 350 403 21,400 850 Climbing Atlanta Center
Sun 08:20:52 AM 36.3503 -81.0047 343° North 360 414 22,100 750 Climbing Atlanta Center
Sun 08:21:52 AM 36.4450 -81.0397 343° North 367 422 22,900 450 Climbing Atlanta Center
Sun 08:22:52 AM 36.5458 -81.0747 344° North 367 422 23,000 250 Climbing Atlanta Center
Sun 08:23:52 AM 36.6469 -81.1150 342° North 367 422 23,400 950 Climbing Atlanta Center
Sun 08:24:52 AM 36.7481 -81.1528 343° North 372 428 24,900 1,250 Climbing Atlanta Center
Sun 08:25:52 AM 36.8344 -81.1886 342° North 372 428 25,900 1,200 Climbing Atlanta Center
Sun 08:28:12 AM 37.0886 -81.2819 344° North 390 449 28,900 1,164 Climbing Indianapolis Center
Sun 08:29:13 AM 37.1944 -81.3219 343° North 392 451 29,800 541 Climbing Indianapolis Center
Sun 08:30:14 AM 37.3114 -81.3664 343° North 399 459 30,000 98 Climbing Indianapolis Center
Sun 08:31:15 AM 37.4114 -81.4053 343° North 396 456 30,000  Level Indianapolis Center
Sun 08:32:16 AM 37.5111 -81.4444 343° North 391 450 30,000  Level Indianapolis Center
Sun 08:33:17 AM 37.6119 -81.4825 343° North 390 449 30,000  Level Indianapolis Center
Sun 08:34:18 AM 37.7297 -81.5292 343° North 388 447 30,000  Level Indianapolis Center
Sun 08:35:19 AM 37.8325 -81.5681 343° North 387 445 30,000  Level Indianapolis Center
Sun 08:36:21 AM 37.9253 -81.6044 343° North 392 451 30,000  Level Indianapolis Center
Sun 08:37:22 AM 38.0303 -81.6458 343° North 392 451 30,000 -49 Level Indianapolis Center
Sun 08:38:23 AM 38.1564 -81.6950 343° North 392 451 29,900 -787 Descending Indianapolis Center
Sun 08:39:24 AM 38.2611 -81.7383 342° North 392 451 28,400 -1,475 Descending Indianapolis Center
Sun 08:40:25 AM 38.3514 -81.8122 327° Northwest 386 444 26,900 -1,180 Descending Indianapolis Center
Sun 08:41:26 AM 38.4389 -81.8825 328° Northwest 374 430 26,000 -443 Descending Indianapolis Center
Sun 08:42:27 AM 38.5244 -81.9544 327° Northwest 369 425 26,000  Level Indianapolis Center
Sun 08:43:28 AM 38.6100 -82.0267 327° Northwest 367 422 26,000  Level Indianapolis Center
Sun 08:44:29 AM 38.6972 -82.0992 327° Northwest 367 422 26,000  Level Indianapolis Center
Sun 08:45:30 AM 38.7847 -82.1733 327° Northwest 369 425 26,000  Level Indianapolis Center
Sun 08:46:32 AM 38.8725 -82.2469 327° Northwest 371 427 26,000  Level Indianapolis Center
Sun 08:47:33 AM 38.9600 -82.3206 327° Northwest 372 428 26,000  Level Indianapolis Center
Sun 08:48:34 AM 39.0478 -82.3944 327° Northwest 373 429 26,000 -590 Level Indianapolis Center
Sun 08:49:35 AM 39.1339 -82.4683 326° Northwest 373 429 24,800 -984 Descending Indianapolis Center
Sun 08:50:36 AM 39.2244 -82.5450 327° Northwest 370 426 24,000 -393 Descending Indianapolis Center
Sun 08:51:37 AM 39.3094 -82.6192 326° Northwest 370 426 24,000 -148 Level Indianapolis Center
Sun 08:52:38 AM 39.3631 -82.7233 304° West 361 415 23,700 -683 Descending Indianapolis Center
Sun 08:53:40 AM 39.4025 -82.8378 294° West 352 405 22,600 -829 Descending Indianapolis Center
Sun 08:54:41 AM 39.4417 -82.9519 294° West 352 405 22,000 -295 Descending Indianapolis Center
Sun 08:55:42 AM 39.4800 -83.0644 294° West 346 398 22,000  Level Indianapolis Center
Sun 08:56:43 AM 39.5175 -83.1769 293° West 344 396 22,000  Level Indianapolis Center
Sun 08:57:44 AM 39.5553 -83.2908 293° West 344 396 22,000  Level Indianapolis Center
Sun 08:58:45 AM 39.6017 -83.4286 294° West 344 396 22,000  Level Indianapolis Center
Sun 08:59:47 AM 39.6406 -83.5447 294° West 344 396 22,000  Level Indianapolis Center
Sun 09:00:48 AM 39.6789 -83.6608 293° West 344 396 22,000  Level Indianapolis Center
Sun 09:01:49 AM 39.7167 -83.7744 293° West 344 396 22,000  Level Indianapolis Center
Sun 09:02:50 AM 39.7542 -83.8878 293° West 342 394 22,000  Level Indianapolis Center
Sun 09:03:51 AM 39.7914 -83.9986 294° West 338 389 22,000  Level Indianapolis Center
Sun 09:04:53 AM 39.8272 -84.1083 293° West 334 384 22,000  Level Indianapolis Center
Sun 09:05:54 AM 39.8622 -84.2161 293° West 329 379 22,000  Level Indianapolis Center
Sun 09:06:55 AM 39.8969 -84.3222 293° West 324 373 22,000  Level Indianapolis Center
Sun 09:07:57 AM 39.9314 -84.4306 293° West 323 372 22,000  Level Indianapolis Center
Sun 09:08:58 AM 39.9667 -84.5400 293° West 325 374 22,000  Level Indianapolis Center
Sun 09:09:59 AM 40.0017 -84.6475 293° West 325 374 22,000  Level Indianapolis Center
Sun 09:11:00 AM 40.0356 -84.7558 292° West 325 374 22,000  Level Indianapolis Center
Sun 09:12:02 AM 40.0778 -84.8858 293° West 324 373 22,000  Level Indianapolis Center
Sun 09:13:03 AM 40.1078 -84.9822 292° West 325 374 22,000 -590 Level Indianapolis Center
Sun 09:14:04 AM 40.1428 -85.0900 293° West 325 374 20,800 -1,756 Descending Indianapolis Center
Sun 09:15:06 AM 40.1789 -85.2089 292° West 302 348 18,400 -2,146 Descending Indianapolis Center
Sun 09:16:07 AM 40.2097 -85.3069 292° West 297 342 16,400 -1,902 Descending Indianapolis Center
Sun 09:17:09 AM 40.2258 -85.4081 282° West 294 338 14,500 -1,707 Descending Indianapolis Center
Sun 09:18:10 AM 40.1908 -85.5031 244° Southwest 291 335 12,900 -1,525 Descending Indianapolis Center
Sun 09:19:11 AM 40.1478 -85.5833 235° Southwest 276 318 11,400 -1,561 Descending Indianapolis Center
Sun 09:20:13 AM 40.1061 -85.6606 235° Southwest 266 306 9,700 -1,610 Descending Indianapolis Center
Sun 09:21:14 AM 40.0647 -85.7339 234° Southwest 257 296 8,100 -1,561 Descending Indianapolis Center
Sun 09:22:16 AM 40.0264 -85.8058 235° Southwest 248 285 6,500 -1,659 Descending Indianapolis Center
Sun 09:23:17 AM 39.9881 -85.8772 235° Southwest 245 282 4,700 -1,230 Descending Indianapolis Center
Sun 09:24:18 AM 39.9408 -85.9633 234° Southwest 245 282 4,000 -341 Descending Indianapolis Center
Sun 09:25:20 AM 39.9014 -86.0353 234° Southwest 245 282 4,000  Level Indianapolis Center
Sun 09:26:21 AM 39.8611 -86.0986 230° Southwest 233 268 4,000 -98 Level Indianapolis Center
Sun 09:27:23 AM 39.8303 -86.1386 225° Southwest 189 217 3,800 -439 Descending Indianapolis Center
Sun 09:28:24 AM 39.8047 -86.1714 225° Southwest 151 174 3,100 -689 Descending Indianapolis Center
Sun 09:29:25 AM 39.7781 -86.2050 224° Southwest 138 159 2,400 -683 Descending Indianapolis Center
Sun 09:30:27 AM 39.7511 -86.2408 226° Southwest 138 159 1,700 -732 Descending Indianapolis Center
Sun 09:31:28 AM 39.7253 -86.2750 225° Southwest 133 153 900 -439 Descending Indianapolis Center
Sun 09:32:30 AM 39.6958 -86.3106 223° Southwest 132 152 800 -97 Descending Indianapolis Center

Login

Don't have an account? Register now (free) for customized features, flight alerts, and more!